createdAt,value
2017-01-13T00:00:02.538Z,51.19
2017-01-13T00:00:17.330Z,51.19
2017-01-13T00:00:32.164Z,51.19
2017-01-13T00:00:46.980Z,50.99
2017-01-13T00:01:01.734Z,51.19
2017-01-13T00:01:16.500Z,50.81
2017-01-13T00:01:31.281Z,50.99
2017-01-13T00:01:46.046Z,51.29
2017-01-13T00:02:00.810Z,50.71
2017-01-13T00:02:15.872Z,51.48
2017-01-13T00:02:30.696Z,51.38
2017-01-13T00:02:45.438Z,51.29
2017-01-13T00:03:00.182Z,51.48
2017-01-13T00:03:15.030Z,51.96
2017-01-13T00:03:29.823Z,51.86
2017-01-13T00:03:44.690Z,51.86
2017-01-13T00:03:59.552Z,51.96
2017-01-13T00:04:14.357Z,51.57
2017-01-13T00:04:29.239Z,51.38
2017-01-13T00:04:44.104Z,51.38
2017-01-13T00:04:58.917Z,51.48
2017-01-13T00:05:13.685Z,51.76
2017-01-13T00:05:28.450Z,51.96
2017-01-13T00:05:43.250Z,51.57
2017-01-13T00:05:58.101Z,51.57
2017-01-13T00:06:13.381Z,51.67
2017-01-13T00:06:28.210Z,51.96
2017-01-13T00:06:42.886Z,51.86
2017-01-13T00:06:57.642Z,51.76
2017-01-13T00:07:12.459Z,52.06
2017-01-13T00:07:27.285Z,52.06
2017-01-13T00:07:42.061Z,52.06
2017-01-13T00:07:56.823Z,51.96
2017-01-13T00:08:11.551Z,51.57
2017-01-13T00:08:26.309Z,51.48
2017-01-13T00:08:41.114Z,51.48
2017-01-13T00:08:55.944Z,51.48
2017-01-13T00:09:11.160Z,51.48
2017-01-13T00:09:25.904Z,51.57
2017-01-13T00:09:40.700Z,51.67
2017-01-13T00:09:55.570Z,51.86
2017-01-13T00:10:10.390Z,52.25
2017-01-13T00:10:25.485Z,52.06
2017-01-13T00:10:40.272Z,52.54
2017-01-13T00:10:55.090Z,53.5
2017-01-13T00:11:09.886Z,53.4
2017-01-13T00:11:24.776Z,53.59
2017-01-13T00:11:39.599Z,53.69
2017-01-13T00:11:54.398Z,54
2017-01-13T00:12:09.158Z,54.56
2017-01-13T00:12:23.963Z,54.36
2017-01-13T00:12:38.735Z,54.36
2017-01-13T00:12:53.482Z,54.46
2017-01-13T00:13:08.294Z,54.08
2017-01-13T00:13:23.169Z,53.98
2017-01-13T00:13:37.970Z,54.17
2017-01-13T00:13:52.797Z,54.27
2017-01-13T00:14:07.599Z,54.08
2017-01-13T00:14:22.429Z,54.75
2017-01-13T00:14:37.234Z,54.85
2017-01-13T00:14:51.974Z,55.04
2017-01-13T00:15:06.804Z,55.04
2017-01-13T00:15:21.582Z,55.04
2017-01-13T00:15:36.361Z,55.13
2017-01-13T00:15:51.073Z,55.13
2017-01-13T00:16:05.878Z,54.85
2017-01-13T00:16:20.613Z,55.23
2017-01-13T00:16:35.374Z,55.04
2017-01-13T00:16:50.170Z,55.04
2017-01-13T00:17:04.898Z,55.23
2017-01-13T00:17:19.673Z,55.04
2017-01-13T00:17:34.467Z,55.04
2017-01-13T00:17:49.234Z,55.23
2017-01-13T00:18:04.025Z,54.94
2017-01-13T00:18:18.773Z,54.68
2017-01-13T00:18:33.597Z,54.27
2017-01-13T00:18:48.360Z,54.85
2017-01-13T00:19:03.134Z,55.04
2017-01-13T00:19:17.980Z,55.52
2017-01-13T00:19:32.827Z,55.62
2017-01-13T00:19:47.612Z,55.62
2017-01-13T00:20:02.489Z,56.1
2017-01-13T00:20:17.223Z,56
2017-01-13T00:20:31.969Z,56.2
2017-01-13T00:20:46.800Z,56.29
2017-01-13T00:21:01.599Z,56.1
2017-01-13T00:21:16.458Z,56.77
2017-01-13T00:21:31.528Z,56.77
2017-01-13T00:21:46.359Z,57.06
2017-01-13T00:22:01.116Z,57.15
2017-01-13T00:22:15.920Z,57.83
2017-01-13T00:22:30.749Z,58.02
2017-01-13T00:22:45.595Z,58.02
2017-01-13T00:23:00.486Z,58.02
2017-01-13T00:23:15.320Z,58.02
2017-01-13T00:23:30.089Z,57.83
2017-01-13T00:23:44.931Z,57.83
2017-01-13T00:23:59.765Z,57.83
2017-01-13T00:24:14.605Z,57.83
2017-01-13T00:24:29.340Z,57.54
2017-01-13T00:24:44.156Z,57.25
2017-01-13T00:24:58.928Z,57.73
2017-01-13T00:25:13.708Z,57.73
2017-01-13T00:25:28.455Z,57.64
2017-01-13T00:25:43.198Z,57.83
2017-01-13T00:25:57.928Z,57.92
2017-01-13T00:26:12.672Z,58.22
2017-01-13T00:26:27.398Z,58.12
2017-01-13T00:26:42.133Z,59.17
2017-01-13T00:26:56.939Z,59.94
2017-01-13T00:27:11.737Z,60.14
2017-01-13T00:27:26.566Z,60.14
2017-01-13T00:27:41.271Z,59.94
2017-01-13T00:27:56.018Z,59.75
2017-01-13T00:28:10.824Z,59.85
2017-01-13T00:28:25.624Z,60.42
2017-01-13T00:28:40.412Z,59.75
2017-01-13T00:28:55.168Z,59.75
2017-01-13T00:29:09.916Z,59.85
2017-01-13T00:29:24.674Z,60.14
2017-01-13T00:29:39.435Z,60.52
2017-01-13T00:29:54.175Z,60.52
2017-01-13T00:30:08.980Z,61.19
2017-01-13T00:30:23.791Z,61.58
2017-01-13T00:30:38.680Z,61.49
2017-01-13T00:30:53.426Z,61.87
2017-01-13T00:31:08.198Z,62.35
2017-01-13T00:31:22.975Z,62.35
2017-01-13T00:31:37.774Z,62.16
2017-01-13T00:31:52.611Z,61.77
2017-01-13T00:32:07.331Z,62.45
2017-01-13T00:32:22.086Z,61.68
2017-01-13T00:32:36.847Z,62.35
2017-01-13T00:32:51.597Z,62.06
2017-01-13T00:33:06.382Z,61.97
2017-01-13T00:33:21.148Z,62.26
2017-01-13T00:33:35.995Z,62.26
2017-01-13T00:33:50.866Z,61.68
2017-01-13T00:34:05.684Z,61.58
2017-01-13T00:34:20.508Z,61.68
2017-01-13T00:34:35.310Z,61.49
2017-01-13T00:34:50.037Z,62.06
2017-01-13T00:35:04.843Z,62.35
2017-01-13T00:35:19.591Z,61.87
2017-01-13T00:35:34.395Z,62.35
2017-01-13T00:35:49.195Z,62.83
2017-01-13T00:36:04.010Z,62.26
2017-01-13T00:36:18.833Z,61.97
2017-01-13T00:36:34.000Z,62.35
2017-01-13T00:36:48.802Z,61.77
2017-01-13T00:37:03.542Z,62.16
2017-01-13T00:37:18.425Z,62.16
2017-01-13T00:37:33.246Z,62.16
2017-01-13T00:37:48.039Z,62.26
2017-01-13T00:38:02.736Z,62.06
2017-01-13T00:38:17.545Z,62.16
2017-01-13T00:38:32.283Z,62.26
2017-01-13T00:38:47.088Z,62.06
2017-01-13T00:39:01.892Z,62.26
2017-01-13T00:39:16.679Z,62.16
2017-01-13T00:39:31.498Z,62.35
2017-01-13T00:39:46.232Z,62.16
2017-01-13T00:40:01.112Z,62.64
2017-01-13T00:40:15.937Z,63.41
2017-01-13T00:40:30.726Z,63.22
2017-01-13T00:40:45.515Z,63.31
2017-01-13T00:41:00.356Z,62.93
2017-01-13T00:41:15.209Z,63.31
2017-01-13T00:41:30.063Z,63.31
2017-01-13T00:41:44.847Z,63.51
2017-01-13T00:41:59.693Z,64.28
2017-01-13T00:42:14.445Z,64.18
2017-01-13T00:42:29.211Z,63.7
2017-01-13T00:42:44.004Z,63.6
2017-01-13T00:42:58.767Z,63.41
2017-01-13T00:43:13.612Z,63.6
2017-01-13T00:43:28.443Z,63.41
2017-01-13T00:43:43.218Z,63.7
2017-01-13T00:43:57.978Z,63.6
2017-01-13T00:44:12.737Z,63.41
2017-01-13T00:44:27.544Z,63.31
2017-01-13T00:44:42.330Z,63.31
2017-01-13T00:44:57.107Z,63.6
2017-01-13T00:45:11.909Z,63.51
2017-01-13T00:45:26.686Z,63.79
2017-01-13T00:45:41.548Z,64.18
2017-01-13T00:45:56.372Z,64.28
2017-01-13T00:46:11.214Z,64.08
2017-01-13T00:46:26.030Z,64.28
2017-01-13T00:46:40.925Z,64.28
2017-01-13T00:46:55.687Z,64.28
2017-01-13T00:47:10.470Z,64.28
2017-01-13T00:47:25.316Z,65.05
2017-01-13T00:47:40.129Z,65.33
2017-01-13T00:47:54.941Z,65.33
2017-01-13T00:48:09.669Z,66.2
2017-01-13T00:48:24.435Z,67.07
2017-01-13T00:48:39.293Z,67.65
2017-01-13T00:48:54.094Z,67.74
2017-01-13T00:49:08.882Z,68.13
2017-01-13T00:49:23.665Z,68.13
2017-01-13T00:49:38.497Z,68.13
2017-01-13T00:49:53.264Z,67.93
2017-01-13T00:50:08.107Z,67.93
2017-01-13T00:50:22.935Z,68.22
2017-01-13T00:50:37.668Z,68.03
2017-01-13T00:50:52.510Z,68.13
2017-01-13T00:51:07.367Z,68.7
2017-01-13T00:51:22.195Z,69.28
2017-01-13T00:51:37.354Z,69.67
2017-01-13T00:51:52.163Z,70.43
2017-01-13T00:52:07.076Z,70.82
2017-01-13T00:52:21.843Z,71.49
2017-01-13T00:52:36.693Z,71.3
2017-01-13T00:52:51.371Z,71.2
2017-01-13T00:53:06.177Z,71.2
2017-01-13T00:53:20.956Z,71.4
2017-01-13T00:53:35.711Z,71.4
2017-01-13T00:53:50.570Z,71.49
2017-01-13T00:54:05.345Z,71.88
2017-01-13T00:54:20.283Z,71.11
2017-01-13T00:54:35.172Z,71.4
2017-01-13T00:54:50.025Z,71.01
2017-01-13T00:55:04.823Z,71.3
2017-01-13T00:55:19.825Z,71.3
2017-01-13T00:55:34.604Z,71.49
2017-01-13T00:55:49.486Z,71.88
2017-01-13T00:56:04.257Z,73.8
2017-01-13T00:56:19.047Z,73.71
2017-01-13T00:56:33.869Z,73.8
2017-01-13T00:56:48.898Z,73.8
2017-01-13T00:57:03.650Z,74.09
2017-01-13T00:57:18.478Z,73.22
2017-01-13T00:57:33.256Z,73.42
2017-01-13T00:57:48.201Z,73.9
2017-01-13T00:58:03.035Z,73.8
2017-01-13T00:58:17.928Z,73.22
2017-01-13T00:58:32.794Z,73.32
2017-01-13T00:58:47.700Z,73.42
2017-01-13T00:59:02.472Z,73.8
2017-01-13T00:59:17.295Z,74.19
2017-01-13T00:59:32.129Z,73.9
2017-01-13T00:59:46.997Z,74.19
2017-01-13T01:00:01.756Z,74.38
2017-01-13T01:00:16.700Z,74.38
2017-01-13T01:00:31.473Z,73.99
2017-01-13T01:00:46.339Z,74.19
2017-01-13T01:01:01.124Z,74.19
2017-01-13T01:01:15.914Z,73.9
2017-01-13T01:01:30.870Z,73.99
2017-01-13T01:01:45.681Z,74.09
2017-01-13T01:02:00.477Z,74.09
2017-01-13T01:02:15.335Z,74.19
2017-01-13T01:02:30.201Z,74.09
2017-01-13T01:02:45.111Z,73.99
2017-01-13T01:02:59.907Z,74.19
2017-01-13T01:03:14.729Z,74.38
2017-01-13T01:03:29.555Z,74.29
2017-01-13T01:03:44.341Z,74.96
2017-01-13T01:03:59.093Z,74.38
2017-01-13T01:04:13.910Z,74.38
2017-01-13T01:04:28.735Z,74.67
2017-01-13T01:04:43.519Z,74.09
2017-01-13T01:04:58.331Z,74.67
2017-01-13T01:05:13.138Z,74.09
2017-01-13T01:05:27.943Z,74.19
2017-01-13T01:05:42.724Z,74.76
2017-01-13T01:05:57.547Z,74.19
2017-01-13T01:06:12.326Z,74.48
2017-01-13T01:06:27.044Z,74.19
2017-01-13T01:06:41.833Z,74.09
2017-01-13T01:06:56.985Z,74.57
2017-01-13T01:07:11.779Z,74.38
2017-01-13T01:07:26.552Z,74.57
2017-01-13T01:07:41.394Z,74.38
2017-01-13T01:07:56.185Z,74.48
2017-01-13T01:08:11.024Z,74.48
2017-01-13T01:08:25.786Z,74.29
2017-01-13T01:08:40.593Z,74.19
2017-01-13T01:08:55.350Z,74.09
2017-01-13T01:09:10.120Z,74.57
2017-01-13T01:09:24.868Z,75.44
2017-01-13T01:09:39.614Z,76.31
2017-01-13T01:09:54.293Z,77.08
2017-01-13T01:10:09.082Z,76.78
2017-01-13T01:10:23.817Z,76.69
2017-01-13T01:10:38.598Z,76.78
2017-01-13T01:10:53.435Z,76.5
2017-01-13T01:11:08.246Z,76.21
2017-01-13T01:11:23.087Z,76.4
2017-01-13T01:11:37.858Z,76.4
2017-01-13T01:11:52.657Z,76.21
2017-01-13T01:12:07.450Z,76.11
2017-01-13T01:12:22.309Z,76.4
2017-01-13T01:12:37.115Z,76.69
2017-01-13T01:12:51.871Z,76.5
2017-01-13T01:13:06.623Z,76.98
2017-01-13T01:13:21.433Z,76.98
2017-01-13T01:13:36.248Z,77.36
2017-01-13T01:13:51.048Z,76.98
2017-01-13T01:14:05.843Z,76.5
2017-01-13T01:14:20.665Z,76.98
2017-01-13T01:14:35.455Z,77.08
2017-01-13T01:14:50.325Z,76.88
2017-01-13T01:15:05.118Z,76.69
2017-01-13T01:15:19.857Z,76.5
2017-01-13T01:15:34.705Z,77.17
2017-01-13T01:15:49.561Z,77.17
2017-01-13T01:16:04.307Z,77.26
2017-01-13T01:16:19.112Z,77.75
2017-01-13T01:16:33.903Z,79
2017-01-13T01:16:48.684Z,79
2017-01-13T01:17:03.503Z,79.58
2017-01-13T01:17:18.291Z,79.58
2017-01-13T01:17:33.057Z,79.67
2017-01-13T01:17:47.899Z,79.77
2017-01-13T01:18:02.657Z,79.58
2017-01-13T01:18:17.469Z,79.58
2017-01-13T01:18:32.264Z,79.86
2017-01-13T01:18:47.148Z,79.67
2017-01-13T01:19:02.017Z,79.86
2017-01-13T01:19:16.770Z,80.54
2017-01-13T01:19:31.623Z,80.35
2017-01-13T01:19:46.409Z,80.35
2017-01-13T01:20:01.192Z,80.63
2017-01-13T01:20:16.011Z,80.44
2017-01-13T01:20:30.764Z,80.35
2017-01-13T01:20:45.585Z,80.54
2017-01-13T01:21:00.382Z,80.44
2017-01-13T01:21:15.196Z,80.44
2017-01-13T01:21:31.445Z,80.15
2017-01-13T01:21:46.349Z,80.63
2017-01-13T01:22:01.452Z,80.63
2017-01-13T01:22:16.252Z,80.06
2017-01-13T01:22:31.110Z,80.73
2017-01-13T01:22:45.977Z,80.44
2017-01-13T01:23:00.798Z,80.54
2017-01-13T01:23:15.633Z,80.63
2017-01-13T01:23:30.485Z,80.15
2017-01-13T01:23:45.260Z,80.35
2017-01-13T01:24:00.066Z,80.44
2017-01-13T01:24:14.868Z,80.54
2017-01-13T01:24:29.649Z,80.54
2017-01-13T01:24:44.447Z,80.54
2017-01-13T01:24:59.261Z,80.63
2017-01-13T01:25:14.115Z,80.63
2017-01-13T01:25:28.955Z,80.54
2017-01-13T01:25:43.751Z,80.54
2017-01-13T01:25:58.546Z,80.83
2017-01-13T01:26:13.425Z,81.02
2017-01-13T01:26:28.247Z,81.79
2017-01-13T01:26:43.034Z,81.79
2017-01-13T01:26:57.772Z,81.88
2017-01-13T01:27:12.580Z,81.79
2017-01-13T01:27:27.318Z,81.21
2017-01-13T01:27:42.203Z,81.5
2017-01-13T01:27:57.245Z,81.4
2017-01-13T01:28:12.085Z,81.5
2017-01-13T01:28:26.822Z,81.5
2017-01-13T01:28:41.633Z,81.7
2017-01-13T01:28:56.442Z,81.21
2017-01-13T01:29:11.230Z,81.4
2017-01-13T01:29:26.063Z,81.5
2017-01-13T01:29:40.888Z,81.5
2017-01-13T01:29:55.678Z,81.5
2017-01-13T01:30:10.554Z,82.08
2017-01-13T01:30:25.298Z,81.79
2017-01-13T01:30:40.037Z,81.98
2017-01-13T01:30:54.788Z,81.3
2017-01-13T01:31:09.609Z,81.79
2017-01-13T01:31:24.463Z,81.5
2017-01-13T01:31:39.257Z,81.88
2017-01-13T01:31:54.037Z,81.88
2017-01-13T01:32:08.849Z,81.79
2017-01-13T01:32:23.715Z,82.17
2017-01-13T01:32:38.547Z,82.37
2017-01-13T01:32:53.354Z,82.37
2017-01-13T01:33:08.192Z,82.46
2017-01-13T01:33:23.096Z,82.46
2017-01-13T01:33:37.897Z,82.27
2017-01-13T01:33:52.750Z,82.46
2017-01-13T01:34:07.559Z,82.65
2017-01-13T01:34:22.367Z,82.46
2017-01-13T01:34:37.247Z,82.37
2017-01-13T01:34:52.065Z,82.46
2017-01-13T01:35:06.901Z,81.98
2017-01-13T01:35:21.719Z,82.27
2017-01-13T01:35:36.536Z,82.37
2017-01-13T01:35:51.345Z,82.65
2017-01-13T01:36:06.141Z,82.27
2017-01-13T01:36:20.874Z,82.56
2017-01-13T01:36:35.774Z,81.98
2017-01-13T01:36:50.604Z,82.17
2017-01-13T01:37:05.690Z,82.08
2017-01-13T01:37:20.496Z,82.37
2017-01-13T01:37:35.241Z,82.37
2017-01-13T01:37:50.054Z,82.46
2017-01-13T01:38:04.868Z,82.17
2017-01-13T01:38:19.699Z,82.27
2017-01-13T01:38:34.504Z,82.27
2017-01-13T01:38:49.342Z,82.27
2017-01-13T01:39:04.139Z,82.56
2017-01-13T01:39:18.991Z,82.37
2017-01-13T01:39:33.815Z,82.37
2017-01-13T01:39:48.544Z,82.08
2017-01-13T01:40:03.310Z,83.04
2017-01-13T01:40:18.124Z,82.46
2017-01-13T01:40:32.967Z,82.27
2017-01-13T01:40:47.794Z,82.56
2017-01-13T01:41:02.553Z,82.27
2017-01-13T01:41:17.372Z,82.27
2017-01-13T01:41:32.165Z,82.46
2017-01-13T01:41:47.035Z,82.46
2017-01-13T01:42:01.832Z,82.46
2017-01-13T01:42:16.608Z,82.27
2017-01-13T01:42:31.342Z,82.27
2017-01-13T01:42:46.112Z,82.65
2017-01-13T01:43:00.949Z,82.65
2017-01-13T01:43:15.760Z,82.56
2017-01-13T01:43:30.596Z,82.08
2017-01-13T01:43:45.356Z,82.27
2017-01-13T01:44:00.176Z,82.17
2017-01-13T01:44:15.001Z,82.27
2017-01-13T01:44:29.844Z,82.17
2017-01-13T01:44:44.621Z,82.56
2017-01-13T01:44:59.443Z,82.17
2017-01-13T01:45:14.219Z,82.17
2017-01-13T01:45:29.025Z,82.17
2017-01-13T01:45:43.792Z,81.79
2017-01-13T01:45:58.554Z,82.17
2017-01-13T01:46:13.343Z,81.88
2017-01-13T01:46:28.196Z,81.79
2017-01-13T01:46:42.991Z,81.79
2017-01-13T01:46:57.815Z,82.27
2017-01-13T01:47:12.640Z,81.79
2017-01-13T01:47:27.386Z,82.37
2017-01-13T01:47:42.198Z,82.56
2017-01-13T01:47:57.025Z,82.27
2017-01-13T01:48:11.819Z,82.56
2017-01-13T01:48:26.709Z,83.23
2017-01-13T01:48:41.522Z,85.35
2017-01-13T01:48:56.341Z,86.51
2017-01-13T01:49:11.095Z,86.02
2017-01-13T01:49:25.881Z,86.22
2017-01-13T01:49:40.657Z,85.93
2017-01-13T01:49:55.502Z,85.83
2017-01-13T01:50:10.305Z,85.74
2017-01-13T01:50:25.207Z,86.22
2017-01-13T01:50:40.078Z,85.93
2017-01-13T01:50:54.788Z,85.54
2017-01-13T01:51:09.586Z,85.74
2017-01-13T01:51:24.362Z,86.89
2017-01-13T01:51:39.148Z,87.08
2017-01-13T01:51:53.938Z,86.6
2017-01-13T01:52:08.904Z,87.08
2017-01-13T01:52:23.708Z,87.85
2017-01-13T01:52:38.577Z,88.24
2017-01-13T01:52:53.345Z,88.43
2017-01-13T01:53:08.417Z,88.04
2017-01-13T01:53:23.254Z,88.53
2017-01-13T01:53:38.037Z,87.76
2017-01-13T01:53:52.834Z,87.56
2017-01-13T01:54:07.589Z,88.04
2017-01-13T01:54:22.595Z,88.24
2017-01-13T01:54:37.401Z,88.53
2017-01-13T01:54:52.231Z,88.04
2017-01-13T01:55:07.107Z,88.53
2017-01-13T01:55:21.908Z,88.04
2017-01-13T01:55:36.767Z,88.24
2017-01-13T01:55:51.587Z,88.04
2017-01-13T01:56:06.371Z,88.14
2017-01-13T01:56:21.250Z,88.04
2017-01-13T01:56:35.999Z,88.24
2017-01-13T01:56:50.870Z,88.14
2017-01-13T01:57:05.675Z,88.33
2017-01-13T01:57:20.473Z,88.24
2017-01-13T01:57:35.284Z,88.04
2017-01-13T01:57:50.131Z,88.24
2017-01-13T01:58:04.917Z,89.1
2017-01-13T01:58:19.837Z,88.71
2017-01-13T01:58:34.555Z,88.71
2017-01-13T01:58:49.360Z,88.62
2017-01-13T01:59:04.182Z,88.33
2017-01-13T01:59:18.985Z,88.14
2017-01-13T01:59:33.791Z,88.53
2017-01-13T01:59:48.624Z,88.81
2017-01-13T02:00:03.476Z,88.81
2017-01-13T02:00:18.309Z,88.24
2017-01-13T02:00:33.122Z,88.91
2017-01-13T02:00:47.943Z,89.01
2017-01-13T02:01:02.731Z,88.33
2017-01-13T02:01:17.498Z,88.71
2017-01-13T02:01:32.323Z,88.81
2017-01-13T02:01:47.147Z,88.57
2017-01-13T02:02:01.904Z,88.71
2017-01-13T02:02:16.661Z,88.91
2017-01-13T02:02:31.446Z,88.57
2017-01-13T02:02:46.301Z,88.81
2017-01-13T02:03:01.105Z,88.91
2017-01-13T02:03:15.876Z,88.53
2017-01-13T02:03:30.693Z,89.01
2017-01-13T02:03:45.409Z,88.43
2017-01-13T02:04:00.227Z,88.81
2017-01-13T02:04:15.053Z,88.33
2017-01-13T02:04:29.857Z,88.62
2017-01-13T02:04:44.655Z,88.29
2017-01-13T02:04:59.445Z,88.62
2017-01-13T02:05:14.154Z,88.43
2017-01-13T02:05:28.928Z,88.62
2017-01-13T02:05:43.701Z,88.62
2017-01-13T02:05:58.461Z,88.43
2017-01-13T02:06:13.274Z,88.24
2017-01-13T02:06:28.167Z,88.48
2017-01-13T02:06:42.974Z,88.04
2017-01-13T02:06:57.700Z,88.24
2017-01-13T02:07:12.428Z,88.43
2017-01-13T02:07:27.652Z,88.19
2017-01-13T02:07:42.373Z,88.33
2017-01-13T02:07:57.178Z,88.04
2017-01-13T02:08:11.962Z,88.14
2017-01-13T02:08:26.747Z,88.04
2017-01-13T02:08:41.527Z,88.24
2017-01-13T02:08:56.306Z,88.43
2017-01-13T02:09:11.093Z,87.95
2017-01-13T02:09:25.921Z,88.81
2017-01-13T02:09:40.649Z,88.14
2017-01-13T02:09:55.477Z,88.24
2017-01-13T02:10:10.285Z,88.33
2017-01-13T02:10:25.178Z,88.33
2017-01-13T02:10:39.905Z,88.53
2017-01-13T02:10:54.777Z,88.33
2017-01-13T02:11:09.619Z,88.14
2017-01-13T02:11:24.440Z,88.14
2017-01-13T02:11:39.232Z,88.14
2017-01-13T02:11:53.973Z,88.24
2017-01-13T02:12:08.757Z,88.14
2017-01-13T02:12:23.571Z,88.04
2017-01-13T02:12:38.480Z,87.95
2017-01-13T02:12:53.259Z,88.14
2017-01-13T02:13:08.010Z,88.14
2017-01-13T02:13:22.756Z,88.43
2017-01-13T02:13:37.516Z,88.04
2017-01-13T02:13:52.299Z,88.14
2017-01-13T02:14:07.061Z,88.04
2017-01-13T02:14:21.888Z,88.14
2017-01-13T02:14:36.644Z,88.33
2017-01-13T02:14:51.486Z,88.14
2017-01-13T02:15:06.210Z,88.33
2017-01-13T02:15:20.996Z,88.14
2017-01-13T02:15:35.805Z,87.95
2017-01-13T02:15:51.300Z,88.24
2017-01-13T02:16:06.076Z,88.53
2017-01-13T02:16:20.891Z,88.14
2017-01-13T02:16:35.649Z,88.24
2017-01-13T02:16:50.454Z,88.43
2017-01-13T02:17:05.337Z,88.24
2017-01-13T02:17:20.165Z,88.43
2017-01-13T02:17:35.017Z,88.33
2017-01-13T02:17:49.769Z,88.24
2017-01-13T02:18:04.548Z,88.43
2017-01-13T02:18:19.353Z,87.95
2017-01-13T02:18:34.137Z,88.71
2017-01-13T02:18:48.971Z,88.04
2017-01-13T02:19:03.825Z,88.04
2017-01-13T02:19:18.655Z,88.43
2017-01-13T02:19:33.486Z,88.33
2017-01-13T02:19:48.338Z,88.04
2017-01-13T02:20:03.191Z,88.14
2017-01-13T02:20:18.050Z,87.85
2017-01-13T02:20:32.887Z,88.14
2017-01-13T02:20:47.713Z,88.04
2017-01-13T02:21:02.481Z,88.24
2017-01-13T02:21:17.371Z,88.04
2017-01-13T02:21:32.245Z,88.04
2017-01-13T02:21:47.080Z,88.24
2017-01-13T02:22:01.835Z,88.24
2017-01-13T02:22:16.554Z,88.24
2017-01-13T02:22:31.592Z,88.14
2017-01-13T02:22:46.351Z,88.33
2017-01-13T02:23:01.186Z,88.04
2017-01-13T02:23:15.949Z,88.04
2017-01-13T02:23:30.672Z,88.24
2017-01-13T02:23:45.513Z,88.14
2017-01-13T02:24:00.277Z,88.24
2017-01-13T02:24:15.059Z,88.33
2017-01-13T02:24:29.911Z,88.24
2017-01-13T02:24:44.716Z,89.1
2017-01-13T02:24:59.537Z,88.81
2017-01-13T02:25:14.360Z,89.2
2017-01-13T02:25:29.196Z,88.81
2017-01-13T02:25:44.010Z,88.62
2017-01-13T02:25:58.803Z,88.91
2017-01-13T02:26:13.575Z,88.81
2017-01-13T02:26:28.303Z,88.91
2017-01-13T02:26:43.136Z,88.81
2017-01-13T02:26:57.940Z,89.1
2017-01-13T02:27:12.800Z,89.2
2017-01-13T02:27:27.585Z,89.29
2017-01-13T02:27:42.402Z,89.1
2017-01-13T02:27:57.182Z,89.49
2017-01-13T02:28:12.000Z,90.06
2017-01-13T02:28:26.830Z,90.73
2017-01-13T02:28:41.612Z,90.45
2017-01-13T02:28:56.406Z,90.55
2017-01-13T02:29:11.171Z,90.26
2017-01-13T02:29:25.986Z,90.35
2017-01-13T02:29:40.862Z,91.13
2017-01-13T02:29:55.712Z,90.93
2017-01-13T02:30:10.532Z,90.16
2017-01-13T02:30:25.303Z,90.16
2017-01-13T02:30:40.090Z,90.83
2017-01-13T02:30:54.880Z,90.64
2017-01-13T02:31:09.711Z,90.45
2017-01-13T02:31:24.528Z,90.16
2017-01-13T02:31:39.304Z,90.64
2017-01-13T02:31:54.070Z,90.64
2017-01-13T02:32:08.875Z,91.31
2017-01-13T02:32:23.659Z,91.89
2017-01-13T02:32:38.457Z,91.51
2017-01-13T02:32:53.298Z,91.89
2017-01-13T02:33:08.121Z,91.99
2017-01-13T02:33:22.845Z,91.7
2017-01-13T02:33:37.652Z,92.28
2017-01-13T02:33:52.467Z,92.08
2017-01-13T02:34:07.300Z,92.08
2017-01-13T02:34:22.152Z,92.08
2017-01-13T02:34:36.975Z,92.38
2017-01-13T02:34:51.689Z,92.28
2017-01-13T02:35:06.501Z,92.57
2017-01-13T02:35:21.327Z,92.61
2017-01-13T02:35:36.075Z,92.18
2017-01-13T02:35:50.912Z,91.7
2017-01-13T02:36:05.770Z,91.56
2017-01-13T02:36:20.580Z,92.47
2017-01-13T02:36:35.434Z,92.76
2017-01-13T02:36:50.250Z,92.76
2017-01-13T02:37:05.114Z,91.89
2017-01-13T02:37:19.907Z,92.66
2017-01-13T02:37:35.000Z,92.57
2017-01-13T02:37:49.875Z,92.61
2017-01-13T02:38:04.711Z,92.08
2017-01-13T02:38:19.508Z,92.66
2017-01-13T02:38:34.287Z,92.76
2017-01-13T02:38:49.131Z,92.76
2017-01-13T02:39:03.958Z,92.57
2017-01-13T02:39:18.776Z,92.47
2017-01-13T02:39:33.562Z,92.18
2017-01-13T02:39:48.381Z,92.43
2017-01-13T02:40:03.235Z,92.33
2017-01-13T02:40:18.053Z,92.43
2017-01-13T02:40:32.838Z,92.52
2017-01-13T02:40:47.665Z,92.43
2017-01-13T02:41:02.452Z,92.52
2017-01-13T02:41:17.248Z,92.47
2017-01-13T02:41:32.053Z,92.43
2017-01-13T02:41:46.852Z,92.33
2017-01-13T02:42:01.665Z,92.76
2017-01-13T02:42:16.457Z,92.38
2017-01-13T02:42:31.289Z,92.57
2017-01-13T02:42:46.062Z,92.57
2017-01-13T02:43:00.858Z,92.43
2017-01-13T02:43:15.654Z,92.66
2017-01-13T02:43:30.400Z,92.43
2017-01-13T02:43:45.205Z,92.47
2017-01-13T02:44:00.031Z,92.52
2017-01-13T02:44:14.867Z,92.71
2017-01-13T02:44:29.701Z,92.52
2017-01-13T02:44:44.496Z,92.76
2017-01-13T02:44:59.275Z,92.91
2017-01-13T02:45:14.137Z,92.71
2017-01-13T02:45:28.916Z,92.57
2017-01-13T02:45:43.678Z,92.61
2017-01-13T02:45:58.440Z,92.47
2017-01-13T02:46:13.214Z,92.43
2017-01-13T02:46:28.030Z,92.23
2017-01-13T02:46:42.809Z,92.33
2017-01-13T02:46:57.593Z,92.33
2017-01-13T02:47:12.384Z,92.61
2017-01-13T02:47:27.281Z,92.43
2017-01-13T02:47:42.069Z,92.23
2017-01-13T02:47:56.892Z,92.81
2017-01-13T02:48:11.674Z,92.71
2017-01-13T02:48:26.429Z,92.33
2017-01-13T02:48:41.222Z,92.33
2017-01-13T02:48:56.067Z,92.43
2017-01-13T02:49:10.826Z,92.23
2017-01-13T02:49:25.637Z,92.91
2017-01-13T02:49:40.466Z,92.91
2017-01-13T02:49:55.296Z,92.71
2017-01-13T02:50:10.122Z,92.71
2017-01-13T02:50:25.897Z,92.33
2017-01-13T02:50:42.048Z,92.71
2017-01-13T02:50:58.286Z,92.43
2017-01-13T02:51:14.259Z,92.91
2017-01-13T02:51:29.643Z,92.91
2017-01-13T02:51:44.813Z,92.91
2017-01-13T02:52:00.188Z,92.81
2017-01-13T02:52:15.238Z,92.43
2017-01-13T02:52:30.256Z,92.61
2017-01-13T02:52:45.603Z,93.38
2017-01-13T02:53:00.696Z,92.91
2017-01-13T02:53:15.571Z,92.61
2017-01-13T02:53:30.342Z,92.91
2017-01-13T02:53:45.191Z,92.61
2017-01-13T02:53:59.993Z,92.61
2017-01-13T02:54:14.750Z,93.19
2017-01-13T02:54:29.609Z,92.81
2017-01-13T02:54:44.445Z,92.61
2017-01-13T02:54:59.208Z,93
2017-01-13T02:55:14.003Z,92.61
2017-01-13T02:55:28.815Z,92.91
2017-01-13T02:55:43.600Z,92.91
2017-01-13T02:55:58.409Z,92.81
2017-01-13T02:56:13.157Z,92.91
2017-01-13T02:56:27.988Z,92.61
2017-01-13T02:56:42.804Z,92.71
2017-01-13T02:56:57.630Z,92.52
2017-01-13T02:57:12.458Z,92.81
2017-01-13T02:57:27.334Z,93.29
2017-01-13T02:57:42.062Z,93
2017-01-13T02:57:56.840Z,93
2017-01-13T02:58:11.667Z,92.61
2017-01-13T02:58:26.397Z,92.91
2017-01-13T02:58:41.204Z,92.81
2017-01-13T02:58:56.044Z,92.71
2017-01-13T02:59:10.793Z,92.61
2017-01-13T02:59:25.587Z,92.91
2017-01-13T02:59:40.438Z,92.71
2017-01-13T02:59:55.264Z,92.71
2017-01-13T03:00:10.040Z,92.91
2017-01-13T03:00:24.770Z,92.81
2017-01-13T03:00:39.560Z,92.81
2017-01-13T03:00:54.306Z,92.81
2017-01-13T03:01:09.076Z,92.71
2017-01-13T03:01:23.846Z,92.71
2017-01-13T03:01:38.642Z,92.61
2017-01-13T03:01:53.472Z,92.71
2017-01-13T03:02:08.239Z,92.91
2017-01-13T03:02:23.084Z,92.71
2017-01-13T03:02:37.907Z,92.81
2017-01-13T03:02:52.695Z,92.23
2017-01-13T03:03:07.425Z,92.91
2017-01-13T03:03:22.211Z,92.71
2017-01-13T03:03:37.015Z,92.91
2017-01-13T03:03:51.795Z,92.61
2017-01-13T03:04:06.607Z,92.71
2017-01-13T03:04:21.409Z,92.52
2017-01-13T03:04:36.193Z,92.81
2017-01-13T03:04:51.013Z,92.91
2017-01-13T03:05:05.842Z,92.61
2017-01-13T03:05:20.647Z,92.71
2017-01-13T03:05:35.426Z,92.61
2017-01-13T03:05:50.268Z,92.91
2017-01-13T03:06:05.008Z,92.91
2017-01-13T03:06:19.774Z,92.71
2017-01-13T03:06:34.556Z,92.81
2017-01-13T03:06:49.472Z,92.61
2017-01-13T03:07:04.297Z,92.91
2017-01-13T03:07:19.087Z,92.71
2017-01-13T03:07:33.828Z,92.52
2017-01-13T03:07:48.897Z,92.71
2017-01-13T03:08:03.714Z,92.52
2017-01-13T03:08:18.460Z,93.19
2017-01-13T03:08:33.292Z,93.29
2017-01-13T03:08:48.170Z,93.19
2017-01-13T03:09:03.062Z,92.71
2017-01-13T03:09:17.912Z,92.71
2017-01-13T03:09:32.760Z,92.91
2017-01-13T03:09:47.581Z,92.71
2017-01-13T03:10:02.360Z,92.61
2017-01-13T03:10:17.307Z,92.71
2017-01-13T03:10:32.121Z,92.81
2017-01-13T03:10:46.845Z,92.91
2017-01-13T03:11:01.725Z,92.71
2017-01-13T03:11:16.527Z,92.81
2017-01-13T03:11:31.296Z,93.1